sensor_id;sensor_type;location;lat;lon;timestamp;temperature;humidity
2967;DHT22;1493;51.496;7.210;2024-01-07T00:00:13;2.90;99.90
2967;DHT22;1493;51.496;7.210;2024-01-07T00:02:40;2.80;99.90
2967;DHT22;1493;51.496;7.210;2024-01-07T00:05:08;2.90;99.90
2967;DHT22;1493;51.496;7.210;2024-01-07T00:07:35;2.90;99.90
2967;DHT22;1493;51.496;7.210;2024-01-07T00:10:02;2.90;99.90
2967;DHT22;1493;51.496;7.210;2024-01-07T00:12:32;2.90;99.90
2967;DHT22;1493;51.496;7.210;2024-01-07T00:14:59;3.00;99.90
2967;DHT22;1493;51.496;7.210;2024-01-07T00:17:25;3.00;99.90
2967;DHT22;1493;51.496;7.210;2024-01-07T00:19:52;3.00;99.90
2967;DHT22;1493;51.496;7.210;2024-01-07T00:22:20;3.10;99.90
2967;DHT22;1493;51.496;7.210;2024-01-07T00:24:47;3.10;99.90
2967;DHT22;1493;51.496;7.210;2024-01-07T00:27:14;3.00;99.90
2967;DHT22;1493;51.496;7.210;2024-01-07T00:29:41;3.10;99.90
2967;DHT22;1493;51.496;7.210;2024-01-07T00:32:07;3.10;99.90
2967;DHT22;1493;51.496;7.210;2024-01-07T00:34:34;3.10;99.90
2967;DHT22;1493;51.496;7.210;2024-01-07T00:37:01;2.90;99.90
2967;DHT22;1493;51.496;7.210;2024-01-07T00:39:29;2.80;99.90
2967;DHT22;1493;51.496;7.210;2024-01-07T00:41:56;2.70;99.90
2967;DHT22;1493;51.496;7.210;2024-01-07T00:44:23;2.70;99.90
2967;DHT22;1493;51.496;7.210;2024-01-07T00:46:50;2.70;99.90
2967;DHT22;1493;51.496;7.210;2024-01-07T00:49:16;2.80;99.90
2967;DHT22;1493;51.496;7.210;2024-01-07T00:51:43;2.80;99.90
2967;DHT22;1493;51.496;7.210;2024-01-07T00:54:10;2.80;99.90
2967;DHT22;1493;51.496;7.210;2024-01-07T00:56:38;2.90;99.90
2967;DHT22;1493;51.496;7.210;2024-01-07T00:59:05;3.00;99.90
2967;DHT22;1493;51.496;7.210;2024-01-07T01:01:32;3.00;99.90
2967;DHT22;1493;51.496;7.210;2024-01-07T01:03:59;3.00;99.90
2967;DHT22;1493;51.496;7.210;2024-01-07T01:06:25;2.80;99.90
2967;DHT22;1493;51.496;7.210;2024-01-07T01:08:52;2.80;99.90
2967;DHT22;1493;51.496;7.210;2024-01-07T01:11:19;2.80;99.90
2967;DHT22;1493;51.496;7.210;2024-01-07T01:13:47;2.80;99.90
2967;DHT22;1493;51.496;7.210;2024-01-07T01:16:14;2.80;99.90
2967;DHT22;1493;51.496;7.210;2024-01-07T01:18:41;2.90;99.90
2967;DHT22;1493;51.496;7.210;2024-01-07T01:21:08;2.80;99.90
2967;DHT22;1493;51.496;7.210;2024-01-07T01:23:35;2.70;99.90
2967;DHT22;1493;51.496;7.210;2024-01-07T01:26:02;2.80;99.90
2967;DHT22;1493;51.496;7.210;2024-01-07T01:28:29;2.70;99.90
2967;DHT22;1493;51.496;7.210;2024-01-07T01:30:57;2.70;99.90
2967;DHT22;1493;51.496;7.210;2024-01-07T01:33:24;2.60;99.90
2967;DHT22;1493;51.496;7.210;2024-01-07T01:35:51;2.70;99.90
2967;DHT22;1493;51.496;7.210;2024-01-07T01:38:17;2.80;99.90
2967;DHT22;1493;51.496;7.210;2024-01-07T01:40:51;2.80;99.90
2967;DHT22;1493;51.496;7.210;2024-01-07T01:43:22;2.70;99.90
2967;DHT22;1493;51.496;7.210;2024-01-07T01:45:50;2.80;99.90
2967;DHT22;1493;51.496;7.210;2024-01-07T01:48:18;2.80;99.90
2967;DHT22;1493;51.496;7.210;2024-01-07T01:50:46;2.80;99.90
2967;DHT22;1493;51.496;7.210;2024-01-07T01:53:13;2.80;99.90
2967;DHT22;1493;51.496;7.210;2024-01-07T01:55:40;2.70;99.90
2967;DHT22;1493;51.496;7.210;2024-01-07T01:58:09;2.80;99.90
2967;DHT22;1493;51.496;7.210;2024-01-07T02:00:36;2.80;99.90
2967;DHT22;1493;51.496;7.210;2024-01-07T02:03:03;2.70;99.90
2967;DHT22;1493;51.496;7.210;2024-01-07T02:05:31;2.70;99.90
2967;DHT22;1493;51.496;7.210;2024-01-07T02:07:59;2.70;99.90
2967;DHT22;1493;51.496;7.210;2024-01-07T02:10:26;2.60;99.90
2967;DHT22;1493;51.496;7.210;2024-01-07T02:12:54;2.60;99.90
2967;DHT22;1493;51.496;7.210;2024-01-07T02:15:21;2.60;99.90
2967;DHT22;1493;51.496;7.210;2024-01-07T02:17:48;2.60;99.90
2967;DHT22;1493;51.496;7.210;2024-01-07T02:20:15;2.60;99.90
2967;DHT22;1493;51.496;7.210;2024-01-07T02:22:43;2.70;99.90
2967;DHT22;1493;51.496;7.210;2024-01-07T02:25:11;2.60;99.90
2967;DHT22;1493;51.496;7.210;2024-01-07T02:27:38;2.50;99.90
2967;DHT22;1493;51.496;7.210;2024-01-07T02:30:06;2.50;99.90
2967;DHT22;1493;51.496;7.210;2024-01-07T02:32:33;2.30;99.90
2967;DHT22;1493;51.496;7.210;2024-01-07T02:35:01;2.20;99.90
2967;DHT22;1493;51.496;7.210;2024-01-07T02:37:28;2.10;99.90
2967;DHT22;1493;51.496;7.210;2024-01-07T02:39:55;2.20;99.90
2967;DHT22;1493;51.496;7.210;2024-01-07T02:42:23;2.20;99.90
2967;DHT22;1493;51.496;7.210;2024-01-07T02:44:50;2.20;99.90
2967;DHT22;1493;51.496;7.210;2024-01-07T02:47:16;2.30;99.90
2967;DHT22;1493;51.496;7.210;2024-01-07T02:49:43;2.20;99.90
2967;DHT22;1493;51.496;7.210;2024-01-07T02:52:10;2.30;99.90
2967;DHT22;1493;51.496;7.210;2024-01-07T02:54:37;2.40;99.90
2967;DHT22;1493;51.496;7.210;2024-01-07T02:57:04;2.50;99.90
2967;DHT22;1493;51.496;7.210;2024-01-07T02:59:33;2.30;99.90
2967;DHT22;1493;51.496;7.210;2024-01-07T03:02:00;2.20;99.90
2967;DHT22;1493;51.496;7.210;2024-01-07T03:04:26;2.30;99.90
2967;DHT22;1493;51.496;7.210;2024-01-07T03:06:53;2.30;99.90
2967;DHT22;1493;51.496;7.210;2024-01-07T03:09:20;2.30;99.90
2967;DHT22;1493;51.496;7.210;2024-01-07T03:11:47;2.30;99.90
2967;DHT22;1493;51.496;7.210;2024-01-07T03:14:13;2.30;99.90
2967;DHT22;1493;51.496;7.210;2024-01-07T03:16:43;2.30;99.90
2967;DHT22;1493;51.496;7.210;2024-01-07T03:19:10;2.30;99.90
2967;DHT22;1493;51.496;7.210;2024-01-07T03:21:37;2.40;99.90
2967;DHT22;1493;51.496;7.210;2024-01-07T03:24:04;2.40;99.90
2967;DHT22;1493;51.496;7.210;2024-01-07T03:26:31;2.40;99.90
2967;DHT22;1493;51.496;7.210;2024-01-07T03:28:58;2.50;99.90
2967;DHT22;1493;51.496;7.210;2024-01-07T03:31:27;2.50;99.90
2967;DHT22;1493;51.496;7.210;2024-01-07T03:33:55;2.50;99.90
2967;DHT22;1493;51.496;7.210;2024-01-07T03:36:22;2.40;99.90
2967;DHT22;1493;51.496;7.210;2024-01-07T03:38:49;2.40;99.90
2967;DHT22;1493;51.496;7.210;2024-01-07T03:41:16;2.20;99.90
2967;DHT22;1493;51.496;7.210;2024-01-07T03:43:49;2.30;99.90
2967;DHT22;1493;51.496;7.210;2024-01-07T03:46:16;2.40;99.90
2967;DHT22;1493;51.496;7.210;2024-01-07T03:48:45;2.40;99.90
2967;DHT22;1493;51.496;7.210;2024-01-07T03:51:13;2.30;99.90
2967;DHT22;1493;51.496;7.210;2024-01-07T03:53:39;2.30;99.90
2967;DHT22;1493;51.496;7.210;2024-01-07T03:56:06;2.30;99.90
2967;DHT22;1493;51.496;7.210;2024-01-07T03:58:33;2.20;99.90
2967;DHT22;1493;51.496;7.210;2024-01-07T04:01:01;2.20;99.90
2967;DHT22;1493;51.496;7.210;2024-01-07T04:03:27;2.20;99.90
2967;DHT22;1493;51.496;7.210;2024-01-07T04:05:54;2.10;99.90
2967;DHT22;1493;51.496;7.210;2024-01-07T04:08:22;2.10;99.90
2967;DHT22;1493;51.496;7.210;2024-01-07T04:10:49;1.90;99.90
2967;DHT22;1493;51.496;7.210;2024-01-07T04:13:16;2.10;99.90
2967;DHT22;1493;51.496;7.210;2024-01-07T04:15:43;2.10;99.90
2967;DHT22;1493;51.496;7.210;2024-01-07T04:18:10;1.90;99.90
2967;DHT22;1493;51.496;7.210;2024-01-07T04:20:37;1.90;99.90
2967;DHT22;1493;51.496;7.210;2024-01-07T04:23:04;2.00;99.90
2967;DHT22;1493;51.496;7.210;2024-01-07T04:25:32;2.00;99.90
2967;DHT22;1493;51.496;7.210;2024-01-07T04:27:59;2.00;99.90
2967;DHT22;1493;51.496;7.210;2024-01-07T04:30:26;2.10;99.90
2967;DHT22;1493;51.496;7.210;2024-01-07T04:32:53;2.10;99.90
2967;DHT22;1493;51.496;7.210;2024-01-07T04:35:19;2.00;99.90
2967;DHT22;1493;51.496;7.210;2024-01-07T04:37:46;1.90;99.90
2967;DHT22;1493;51.496;7.210;2024-01-07T04:40:13;1.80;99.90
2967;DHT22;1493;51.496;7.210;2024-01-07T04:42:42;1.90;99.90
2967;DHT22;1493;51.496;7.210;2024-01-07T04:45:09;1.90;99.90
2967;DHT22;1493;51.496;7.210;2024-01-07T04:47:35;1.90;99.90
2967;DHT22;1493;51.496;7.210;2024-01-07T04:50:03;1.90;99.90
2967;DHT22;1493;51.496;7.210;2024-01-07T04:52:30;1.90;99.90
2967;DHT22;1493;51.496;7.210;2024-01-07T04:54:57;2.00;99.90
2967;DHT22;1493;51.496;7.210;2024-01-07T04:57:24;2.10;99.90
2967;DHT22;1493;51.496;7.210;2024-01-07T04:59:52;2.10;99.90
2967;DHT22;1493;51.496;7.210;2024-01-07T05:02:19;2.30;99.90
2967;DHT22;1493;51.496;7.210;2024-01-07T05:04:46;2.30;99.90
2967;DHT22;1493;51.496;7.210;2024-01-07T05:07:12;2.20;99.90
2967;DHT22;1493;51.496;7.210;2024-01-07T05:09:39;2.20;99.90
2967;DHT22;1493;51.496;7.210;2024-01-07T05:12:06;2.20;99.90
2967;DHT22;1493;51.496;7.210;2024-01-07T05:14:33;2.20;99.90
2967;DHT22;1493;51.496;7.210;2024-01-07T05:17:01;2.20;99.90
2967;DHT22;1493;51.496;7.210;2024-01-07T05:19:28;2.20;99.90
2967;DHT22;1493;51.496;7.210;2024-01-07T05:21:55;2.30;99.90
2967;DHT22;1493;51.496;7.210;2024-01-07T05:24:22;2.20;99.90
2967;DHT22;1493;51.496;7.210;2024-01-07T05:26:49;2.20;99.90
2967;DHT22;1493;51.496;7.210;2024-01-07T05:29:16;2.10;99.90
2967;DHT22;1493;51.496;7.210;2024-01-07T05:31:43;2.00;99.90
2967;DHT22;1493;51.496;7.210;2024-01-07T05:34:11;2.00;99.90
2967;DHT22;1493;51.496;7.210;2024-01-07T05:36:37;2.00;99.90
2967;DHT22;1493;51.496;7.210;2024-01-07T05:39:04;1.90;99.90
2967;DHT22;1493;51.496;7.210;2024-01-07T05:41:32;2.00;99.90
2967;DHT22;1493;51.496;7.210;2024-01-07T05:43:59;2.00;99.90
2967;DHT22;1493;51.496;7.210;2024-01-07T05:46:26;2.00;99.90
2967;DHT22;1493;51.496;7.210;2024-01-07T05:48:53;2.00;99.90
2967;DHT22;1493;51.496;7.210;2024-01-07T05:51:21;1.90;99.90
2967;DHT22;1493;51.496;7.210;2024-01-07T05:53:48;2.00;99.90
2967;DHT22;1493;51.496;7.210;2024-01-07T05:56:14;1.90;99.90
2967;DHT22;1493;51.496;7.210;2024-01-07T05:58:41;1.90;99.90
2967;DHT22;1493;51.496;7.210;2024-01-07T06:01:08;1.80;99.90
2967;DHT22;1493;51.496;7.210;2024-01-07T06:03:35;1.80;99.90
2967;DHT22;1493;51.496;7.210;2024-01-07T06:06:02;1.70;99.90
2967;DHT22;1493;51.496;7.210;2024-01-07T06:08:30;1.70;99.90
2967;DHT22;1493;51.496;7.210;2024-01-07T06:10:57;1.80;99.90
2967;DHT22;1493;51.496;7.210;2024-01-07T06:13:24;1.80;99.90
2967;DHT22;1493;51.496;7.210;2024-01-07T06:15:52;1.80;99.90
2967;DHT22;1493;51.496;7.210;2024-01-07T06:18:19;1.70;99.90
2967;DHT22;1493;51.496;7.210;2024-01-07T06:20:46;1.80;99.90
2967;DHT22;1493;51.496;7.210;2024-01-07T06:23:13;1.80;99.90
2967;DHT22;1493;51.496;7.210;2024-01-07T06:25:42;1.80;99.90
2967;DHT22;1493;51.496;7.210;2024-01-07T06:28:09;1.70;99.90
2967;DHT22;1493;51.496;7.210;2024-01-07T06:30:36;1.70;99.90
2967;DHT22;1493;51.496;7.210;2024-01-07T06:33:03;1.70;99.90
2967;DHT22;1493;51.496;7.210;2024-01-07T06:35:30;1.70;99.90
2967;DHT22;1493;51.496;7.210;2024-01-07T06:37:57;1.70;99.90
2967;DHT22;1493;51.496;7.210;2024-01-07T06:40:24;1.60;99.90
2967;DHT22;1493;51.496;7.210;2024-01-07T06:42:52;1.80;99.90
2967;DHT22;1493;51.496;7.210;2024-01-07T06:45:19;1.80;99.90
2967;DHT22;1493;51.496;7.210;2024-01-07T06:47:46;1.80;99.90
2967;DHT22;1493;51.496;7.210;2024-01-07T06:50:13;1.80;99.90
2967;DHT22;1493;51.496;7.210;2024-01-07T06:52:42;1.80;99.90
2967;DHT22;1493;51.496;7.210;2024-01-07T06:55:09;1.80;99.90
2967;DHT22;1493;51.496;7.210;2024-01-07T06:57:36;1.80;99.90
2967;DHT22;1493;51.496;7.210;2024-01-07T07:00:06;1.70;99.90
2967;DHT22;1493;51.496;7.210;2024-01-07T07:02:33;1.60;99.90
2967;DHT22;1493;51.496;7.210;2024-01-07T07:05:00;1.60;99.90
2967;DHT22;1493;51.496;7.210;2024-01-07T07:07:26;1.60;99.90
2967;DHT22;1493;51.496;7.210;2024-01-07T07:09:53;1.60;99.90
2967;DHT22;1493;51.496;7.210;2024-01-07T07:12:20;1.60;99.90
2967;DHT22;1493;51.496;7.210;2024-01-07T07:14:47;1.80;99.90
2967;DHT22;1493;51.496;7.210;2024-01-07T07:17:15;1.70;99.90
2967;DHT22;1493;51.496;7.210;2024-01-07T07:19:42;1.70;99.90
2967;DHT22;1493;51.496;7.210;2024-01-07T07:22:09;1.60;99.90
2967;DHT22;1493;51.496;7.210;2024-01-07T07:24:40;1.60;99.90
2967;DHT22;1493;51.496;7.210;2024-01-07T07:27:07;2.60;99.90
2967;DHT22;1493;51.496;7.210;2024-01-07T07:29:33;1.60;99.90
2967;DHT22;1493;51.496;7.210;2024-01-07T07:32:00;1.70;99.90
2967;DHT22;1493;51.496;7.210;2024-01-07T07:34:28;1.70;99.90
2967;DHT22;1493;51.496;7.210;2024-01-07T07:36:55;1.60;99.90
2967;DHT22;1493;51.496;7.210;2024-01-07T07:39:22;1.60;99.90
2967;DHT22;1493;51.496;7.210;2024-01-07T07:41:49;1.60;99.90
2967;DHT22;1493;51.496;7.210;2024-01-07T07:44:15;1.40;99.90
2967;DHT22;1493;51.496;7.210;2024-01-07T07:46:43;1.50;99.90
2967;DHT22;1493;51.496;7.210;2024-01-07T07:49:10;1.40;99.90
2967;DHT22;1493;51.496;7.210;2024-01-07T07:51:38;1.30;99.90
2967;DHT22;1493;51.496;7.210;2024-01-07T07:54:06;1.40;99.90
2967;DHT22;1493;51.496;7.210;2024-01-07T07:56:33;1.40;99.90
2967;DHT22;1493;51.496;7.210;2024-01-07T07:59:04;1.40;99.90
2967;DHT22;1493;51.496;7.210;2024-01-07T08:01:31;1.30;99.90
2967;DHT22;1493;51.496;7.210;2024-01-07T08:03:57;1.30;99.90
2967;DHT22;1493;51.496;7.210;2024-01-07T08:06:24;1.30;99.90
2967;DHT22;1493;51.496;7.210;2024-01-07T08:08:52;1.30;99.90
2967;DHT22;1493;51.496;7.210;2024-01-07T08:13:47;1.40;99.90
2967;DHT22;1493;51.496;7.210;2024-01-07T08:16:14;1.40;99.90
2967;DHT22;1493;51.496;7.210;2024-01-07T08:18:44;1.50;99.90
2967;DHT22;1493;51.496;7.210;2024-01-07T08:21:11;1.40;99.90
2967;DHT22;1493;51.496;7.210;2024-01-07T08:23:38;1.10;99.90
2967;DHT22;1493;51.496;7.210;2024-01-07T08:26:06;1.30;99.90
2967;DHT22;1493;51.496;7.210;2024-01-07T08:31:00;1.30;99.90
2967;DHT22;1493;51.496;7.210;2024-01-07T08:33:27;1.20;99.90
2967;DHT22;1493;51.496;7.210;2024-01-07T08:35:54;1.20;99.90
2967;DHT22;1493;51.496;7.210;2024-01-07T08:38:21;1.40;99.90
2967;DHT22;1493;51.496;7.210;2024-01-07T08:40:48;1.30;99.90
2967;DHT22;1493;51.496;7.210;2024-01-07T08:43:16;1.30;99.90
2967;DHT22;1493;51.496;7.210;2024-01-07T08:45:43;1.30;99.90
2967;DHT22;1493;51.496;7.210;2024-01-07T08:48:09;1.40;99.90
2967;DHT22;1493;51.496;7.210;2024-01-07T08:50:37;1.30;99.90
2967;DHT22;1493;51.496;7.210;2024-01-07T08:55:31;0.80;99.90
2967;DHT22;1493;51.496;7.210;2024-01-07T08:57:59;1.40;99.90
2967;DHT22;1493;51.496;7.210;2024-01-07T09:00:27;1.10;99.90
2967;DHT22;1493;51.496;7.210;2024-01-07T09:02:58;1.30;99.90
2967;DHT22;1493;51.496;7.210;2024-01-07T09:05:25;1.10;99.90
2967;DHT22;1493;51.496;7.210;2024-01-07T09:10:19;1.40;99.90
2967;DHT22;1493;51.496;7.210;2024-01-07T09:12:47;1.40;99.90
2967;DHT22;1493;51.496;7.210;2024-01-07T09:15:18;1.30;99.90
2967;DHT22;1493;51.496;7.210;2024-01-07T09:17:47;1.40;99.90
2967;DHT22;1493;51.496;7.210;2024-01-07T09:20:14;1.40;99.90
2967;DHT22;1493;51.496;7.210;2024-01-07T09:22:40;1.40;99.90
2967;DHT22;1493;51.496;7.210;2024-01-07T09:25:09;1.10;99.90
2967;DHT22;1493;51.496;7.210;2024-01-07T09:30:04;1.50;99.90
2967;DHT22;1493;51.496;7.210;2024-01-07T09:32:31;1.20;99.90
2967;DHT22;1493;51.496;7.210;2024-01-07T09:34:59;1.30;99.90
2967;DHT22;1493;51.496;7.210;2024-01-07T09:37:30;1.80;99.90
2967;DHT22;1493;51.496;7.210;2024-01-07T09:39:57;1.40;99.90
2967;DHT22;1493;51.496;7.210;2024-01-07T09:44:51;1.40;99.90
2967;DHT22;1493;51.496;7.210;2024-01-07T09:49:46;1.30;99.90
2967;DHT22;1493;51.496;7.210;2024-01-07T09:54:46;1.50;99.90
2967;DHT22;1493;51.496;7.210;2024-01-07T10:09:34;1.30;99.90
2967;DHT22;1493;51.496;7.210;2024-01-07T10:14:29;1.40;99.90
2967;DHT22;1493;51.496;7.210;2024-01-07T10:16:56;1.30;99.90
2967;DHT22;1493;51.496;7.210;2024-01-07T10:19:24;1.70;99.90
2967;DHT22;1493;51.496;7.210;2024-01-07T10:22:00;1.40;99.90
2967;DHT22;1493;51.496;7.210;2024-01-07T10:24:36;1.40;99.90
2967;DHT22;1493;51.496;7.210;2024-01-07T10:27:05;1.30;99.90
2967;DHT22;1493;51.496;7.210;2024-01-07T10:31:59;1.30;99.90
2967;DHT22;1493;51.496;7.210;2024-01-07T10:34:31;1.40;99.90
2967;DHT22;1493;51.496;7.210;2024-01-07T10:36:59;1.50;99.90
2967;DHT22;1493;51.496;7.210;2024-01-07T10:39:26;1.30;99.90
2967;DHT22;1493;51.496;7.210;2024-01-07T10:41:56;1.20;99.90
2967;DHT22;1493;51.496;7.210;2024-01-07T10:44:25;1.10;99.90
2967;DHT22;1493;51.496;7.210;2024-01-07T10:46:54;1.00;99.90
2967;DHT22;1493;51.496;7.210;2024-01-07T10:49:24;0.50;99.90
2967;DHT22;1493;51.496;7.210;2024-01-07T10:52:02;1.20;99.90
2967;DHT22;1493;51.496;7.210;2024-01-07T10:54:30;1.00;99.90
2967;DHT22;1493;51.496;7.210;2024-01-07T10:57:04;1.30;99.90
2967;DHT22;1493;51.496;7.210;2024-01-07T10:59:34;1.40;99.90
2967;DHT22;1493;51.496;7.210;2024-01-07T11:02:03;1.40;99.90
2967;DHT22;1493;51.496;7.210;2024-01-07T11:04:34;1.30;99.90
2967;DHT22;1493;51.496;7.210;2024-01-07T11:07:16;1.40;99.90
2967;DHT22;1493;51.496;7.210;2024-01-07T11:09:51;1.40;99.90
2967;DHT22;1493;51.496;7.210;2024-01-07T11:12:22;1.40;99.90
2967;DHT22;1493;51.496;7.210;2024-01-07T11:17:40;1.50;99.90
2967;DHT22;1493;51.496;7.210;2024-01-07T11:20:21;1.50;99.90
2967;DHT22;1493;51.496;7.210;2024-01-07T11:22:52;1.40;99.90
2967;DHT22;1493;51.496;7.210;2024-01-07T11:25:29;1.30;99.90
2967;DHT22;1493;51.496;7.210;2024-01-07T11:27:59;1.40;99.90
2967;DHT22;1493;51.496;7.210;2024-01-07T11:30:27;2.00;99.90
2967;DHT22;1493;51.496;7.210;2024-01-07T11:32:58;1.60;99.90
2967;DHT22;1493;51.496;7.210;2024-01-07T11:35:53;1.40;99.90
2967;DHT22;1493;51.496;7.210;2024-01-07T11:38:21;1.50;99.90
2967;DHT22;1493;51.496;7.210;2024-01-07T11:40:49;1.40;99.90
2967;DHT22;1493;51.496;7.210;2024-01-07T11:43:18;1.30;99.90
2967;DHT22;1493;51.496;7.210;2024-01-07T11:45:45;1.20;99.90
2967;DHT22;1493;51.496;7.210;2024-01-07T11:48:12;1.40;99.90
2967;DHT22;1493;51.496;7.210;2024-01-07T11:50:39;1.40;99.90
2967;DHT22;1493;51.496;7.210;2024-01-07T11:55:34;1.20;99.90
2967;DHT22;1493;51.496;7.210;2024-01-07T11:58:02;1.10;99.90
2967;DHT22;1493;51.496;7.210;2024-01-07T12:00:32;1.30;99.90
2967;DHT22;1493;51.496;7.210;2024-01-07T12:03:00;1.20;99.90
2967;DHT22;1493;51.496;7.210;2024-01-07T12:05:27;1.10;99.90
2967;DHT22;1493;51.496;7.210;2024-01-07T12:07:54;1.40;99.90
2967;DHT22;1493;51.496;7.210;2024-01-07T12:10:21;1.00;99.90
2967;DHT22;1493;51.496;7.210;2024-01-07T12:12:48;1.50;99.90
2967;DHT22;1493;51.496;7.210;2024-01-07T12:15:16;1.30;99.90
2967;DHT22;1493;51.496;7.210;2024-01-07T12:17:55;1.40;99.90
2967;DHT22;1493;51.496;7.210;2024-01-07T12:20:22;1.10;99.90
2967;DHT22;1493;51.496;7.210;2024-01-07T12:22:48;1.20;99.90
2967;DHT22;1493;51.496;7.210;2024-01-07T12:25:21;3.30;99.90
2967;DHT22;1493;51.496;7.210;2024-01-07T12:27:48;1.20;99.90
2967;DHT22;1493;51.496;7.210;2024-01-07T12:30:18;0.80;99.90
2967;DHT22;1493;51.496;7.210;2024-01-07T12:32:47;0.80;99.90
2967;DHT22;1493;51.496;7.210;2024-01-07T12:35:14;1.00;99.90
2967;DHT22;1493;51.496;7.210;2024-01-07T12:37:42;1.10;99.90
2967;DHT22;1493;51.496;7.210;2024-01-07T12:40:11;1.20;99.90
2967;DHT22;1493;51.496;7.210;2024-01-07T12:42:38;1.00;99.90
2967;DHT22;1493;51.496;7.210;2024-01-07T12:45:10;1.00;99.90
2967;DHT22;1493;51.496;7.210;2024-01-07T12:47:39;0.90;99.90
2967;DHT22;1493;51.496;7.210;2024-01-07T12:50:07;0.90;99.90
2967;DHT22;1493;51.496;7.210;2024-01-07T12:52:36;1.00;99.90
2967;DHT22;1493;51.496;7.210;2024-01-07T12:55:04;1.20;99.90
2967;DHT22;1493;51.496;7.210;2024-01-07T12:57:31;0.90;99.90
2967;DHT22;1493;51.496;7.210;2024-01-07T13:02:26;1.00;99.90
2967;DHT22;1493;51.496;7.210;2024-01-07T13:04:53;1.20;99.90
2967;DHT22;1493;51.496;7.210;2024-01-07T13:07:26;1.40;99.90
2967;DHT22;1493;51.496;7.210;2024-01-07T13:09:52;1.40;99.90
2967;DHT22;1493;51.496;7.210;2024-01-07T13:12:19;1.20;99.90
2967;DHT22;1493;51.496;7.210;2024-01-07T13:14:46;1.20;99.90
2967;DHT22;1493;51.496;7.210;2024-01-07T13:17:14;1.10;99.90
2967;DHT22;1493;51.496;7.210;2024-01-07T13:22:08;1.10;99.90
2967;DHT22;1493;51.496;7.210;2024-01-07T13:24:38;0.90;99.90
2967;DHT22;1493;51.496;7.210;2024-01-07T13:27:06;0.90;99.90
2967;DHT22;1493;51.496;7.210;2024-01-07T13:32:01;0.90;99.90
2967;DHT22;1493;51.496;7.210;2024-01-07T13:34:28;1.10;99.90
2967;DHT22;1493;51.496;7.210;2024-01-07T13:41:52;1.20;99.90
2967;DHT22;1493;51.496;7.210;2024-01-07T13:44:19;1.30;99.90
2967;DHT22;1493;51.496;7.210;2024-01-07T13:46:47;1.30;99.90
2967;DHT22;1493;51.496;7.210;2024-01-07T13:49:14;1.40;99.90
2967;DHT22;1493;51.496;7.210;2024-01-07T13:51:43;1.30;99.90
2967;DHT22;1493;51.496;7.210;2024-01-07T13:54:11;1.30;99.90
2967;DHT22;1493;51.496;7.210;2024-01-07T13:56:40;1.40;99.90
2967;DHT22;1493;51.496;7.210;2024-01-07T13:59:09;1.40;99.90
2967;DHT22;1493;51.496;7.210;2024-01-07T14:01:36;1.20;99.90
2967;DHT22;1493;51.496;7.210;2024-01-07T14:04:04;1.20;99.90
2967;DHT22;1493;51.496;7.210;2024-01-07T14:06:31;1.20;99.90
2967;DHT22;1493;51.496;7.210;2024-01-07T14:08:58;1.10;99.90
2967;DHT22;1493;51.496;7.210;2024-01-07T14:11:25;1.20;99.90
2967;DHT22;1493;51.496;7.210;2024-01-07T14:13:53;1.20;99.90
2967;DHT22;1493;51.496;7.210;2024-01-07T14:16:23;1.20;99.90
2967;DHT22;1493;51.496;7.210;2024-01-07T14:18:52;1.20;99.90
2967;DHT22;1493;51.496;7.210;2024-01-07T14:21:19;1.20;99.90
2967;DHT22;1493;51.496;7.210;2024-01-07T14:23:47;1.30;99.90
2967;DHT22;1493;51.496;7.210;2024-01-07T14:26:14;1.30;99.90
2967;DHT22;1493;51.496;7.210;2024-01-07T14:28:41;1.20;99.90
2967;DHT22;1493;51.496;7.210;2024-01-07T14:31:08;1.20;99.90
2967;DHT22;1493;51.496;7.210;2024-01-07T14:33:36;1.20;99.90
2967;DHT22;1493;51.496;7.210;2024-01-07T14:36:03;1.20;99.90
2967;DHT22;1493;51.496;7.210;2024-01-07T14:38:30;1.20;99.90
2967;DHT22;1493;51.496;7.210;2024-01-07T14:40:57;1.20;99.90
2967;DHT22;1493;51.496;7.210;2024-01-07T14:43:25;1.00;99.90
2967;DHT22;1493;51.496;7.210;2024-01-07T14:45:52;1.00;99.90
2967;DHT22;1493;51.496;7.210;2024-01-07T14:48:19;1.00;99.90
2967;DHT22;1493;51.496;7.210;2024-01-07T14:50:47;1.10;99.90
2967;DHT22;1493;51.496;7.210;2024-01-07T14:53:14;1.10;99.90
2967;DHT22;1493;51.496;7.210;2024-01-07T14:55:41;1.00;99.90
2967;DHT22;1493;51.496;7.210;2024-01-07T14:58:07;1.00;99.90
2967;DHT22;1493;51.496;7.210;2024-01-07T15:00:34;1.00;99.90
2967;DHT22;1493;51.496;7.210;2024-01-07T15:03:01;1.10;99.90
2967;DHT22;1493;51.496;7.210;2024-01-07T15:05:28;1.10;99.90
2967;DHT22;1493;51.496;7.210;2024-01-07T15:07:56;1.10;99.90
2967;DHT22;1493;51.496;7.210;2024-01-07T15:10:23;1.00;99.90
2967;DHT22;1493;51.496;7.210;2024-01-07T15:12:50;1.00;99.90
2967;DHT22;1493;51.496;7.210;2024-01-07T15:15:17;1.00;99.90
2967;DHT22;1493;51.496;7.210;2024-01-07T15:17:46;1.00;99.90
2967;DHT22;1493;51.496;7.210;2024-01-07T15:20:13;1.00;99.90
2967;DHT22;1493;51.496;7.210;2024-01-07T15:22:41;1.00;99.90
2967;DHT22;1493;51.496;7.210;2024-01-07T15:25:13;0.90;99.90
2967;DHT22;1493;51.496;7.210;2024-01-07T15:27:40;0.90;99.90
2967;DHT22;1493;51.496;7.210;2024-01-07T15:30:07;0.90;99.90
2967;DHT22;1493;51.496;7.210;2024-01-07T15:32:34;0.90;99.90
2967;DHT22;1493;51.496;7.210;2024-01-07T15:35:01;0.90;99.90
2967;DHT22;1493;51.496;7.210;2024-01-07T15:37:30;1.00;99.90
2967;DHT22;1493;51.496;7.210;2024-01-07T15:39:57;1.00;99.90
2967;DHT22;1493;51.496;7.210;2024-01-07T15:42:25;1.00;99.90
2967;DHT22;1493;51.496;7.210;2024-01-07T15:44:52;1.00;99.90
2967;DHT22;1493;51.496;7.210;2024-01-07T15:47:19;1.00;99.90
2967;DHT22;1493;51.496;7.210;2024-01-07T15:49:49;1.00;99.90
2967;DHT22;1493;51.496;7.210;2024-01-07T15:52:16;1.00;99.90
2967;DHT22;1493;51.496;7.210;2024-01-07T15:54:42;1.00;99.90
2967;DHT22;1493;51.496;7.210;2024-01-07T15:57:09;1.10;99.90
2967;DHT22;1493;51.496;7.210;2024-01-07T15:59:40;1.20;99.90
2967;DHT22;1493;51.496;7.210;2024-01-07T16:02:07;1.20;99.90
2967;DHT22;1493;51.496;7.210;2024-01-07T16:04:34;1.30;99.90
2967;DHT22;1493;51.496;7.210;2024-01-07T16:07:00;1.40;99.90
2967;DHT22;1493;51.496;7.210;2024-01-07T16:09:27;1.30;99.90
2967;DHT22;1493;51.496;7.210;2024-01-07T16:11:54;1.20;99.90
2967;DHT22;1493;51.496;7.210;2024-01-07T16:14:21;1.20;99.90
2967;DHT22;1493;51.496;7.210;2024-01-07T16:16:51;1.20;99.90
2967;DHT22;1493;51.496;7.210;2024-01-07T16:19:18;1.10;99.90
2967;DHT22;1493;51.496;7.210;2024-01-07T16:21:45;1.10;99.90
2967;DHT22;1493;51.496;7.210;2024-01-07T16:24:12;1.10;99.90
2967;DHT22;1493;51.496;7.210;2024-01-07T16:26:40;1.10;99.90
2967;DHT22;1493;51.496;7.210;2024-01-07T16:29:07;1.00;99.90
2967;DHT22;1493;51.496;7.210;2024-01-07T16:31:35;1.00;99.90
2967;DHT22;1493;51.496;7.210;2024-01-07T16:34:04;1.00;99.90
2967;DHT22;1493;51.496;7.210;2024-01-07T16:36:31;0.90;99.90
2967;DHT22;1493;51.496;7.210;2024-01-07T16:39:12;0.90;99.90
2967;DHT22;1493;51.496;7.210;2024-01-07T16:41:39;1.00;99.90
2967;DHT22;1493;51.496;7.210;2024-01-07T16:44:06;1.00;99.90
2967;DHT22;1493;51.496;7.210;2024-01-07T16:46:34;1.00;99.90
2967;DHT22;1493;51.496;7.210;2024-01-07T16:49:06;1.00;99.90
2967;DHT22;1493;51.496;7.210;2024-01-07T16:51:33;1.00;99.90
2967;DHT22;1493;51.496;7.210;2024-01-07T16:54:00;1.00;99.90
2967;DHT22;1493;51.496;7.210;2024-01-07T16:56:27;1.10;99.90
2967;DHT22;1493;51.496;7.210;2024-01-07T16:58:54;1.10;99.90
2967;DHT22;1493;51.496;7.210;2024-01-07T17:01:20;1.10;99.90
2967;DHT22;1493;51.496;7.210;2024-01-07T17:03:47;1.00;99.90
2967;DHT22;1493;51.496;7.210;2024-01-07T17:06:16;0.90;99.90
2967;DHT22;1493;51.496;7.210;2024-01-07T17:08:42;0.80;99.90
2967;DHT22;1493;51.496;7.210;2024-01-07T17:11:09;0.80;99.90
2967;DHT22;1493;51.496;7.210;2024-01-07T17:13:36;0.70;99.90